sensor_id;sensor_type;location;lat;lon;timestamp;temperature;humidity
39815;DHT22;25495;45.948;4.568;2022-10-24T00:01:34;18.40;99.90
39815;DHT22;25495;45.948;4.568;2022-10-24T00:04:00;18.50;99.90
39815;DHT22;25495;45.948;4.568;2022-10-24T00:06:26;18.50;99.90
39815;DHT22;25495;45.948;4.568;2022-10-24T00:08:52;18.40;99.90
39815;DHT22;25495;45.948;4.568;2022-10-24T00:11:21;18.40;99.90
39815;DHT22;25495;45.948;4.568;2022-10-24T00:13:47;18.40;99.90
39815;DHT22;25495;45.948;4.568;2022-10-24T00:16:13;18.40;99.90
39815;DHT22;25495;45.948;4.568;2022-10-24T00:18:39;18.40;99.90
39815;DHT22;25495;45.948;4.568;2022-10-24T00:21:05;18.40;99.90
39815;DHT22;25495;45.948;4.568;2022-10-24T00:23:31;18.40;99.90
39815;DHT22;25495;45.948;4.568;2022-10-24T00:25:57;18.40;99.90
39815;DHT22;25495;45.948;4.568;2022-10-24T00:28:27;18.50;99.90
39815;DHT22;25495;45.948;4.568;2022-10-24T00:30:53;18.40;99.90
39815;DHT22;25495;45.948;4.568;2022-10-24T00:33:19;18.40;99.90
39815;DHT22;25495;45.948;4.568;2022-10-24T00:35:45;18.50;99.90
39815;DHT22;25495;45.948;4.568;2022-10-24T00:38:11;18.40;99.90
39815;DHT22;25495;45.948;4.568;2022-10-24T00:40:37;18.40;99.90
39815;DHT22;25495;45.948;4.568;2022-10-24T00:43:03;18.40;99.90
39815;DHT22;25495;45.948;4.568;2022-10-24T00:48:23;18.40;99.90
39815;DHT22;25495;45.948;4.568;2022-10-24T00:50:53;18.40;99.90
39815;DHT22;25495;45.948;4.568;2022-10-24T00:53:20;18.50;99.90
39815;DHT22;25495;45.948;4.568;2022-10-24T00:55:49;18.50;99.90
39815;DHT22;25495;45.948;4.568;2022-10-24T00:58:17;18.50;99.90
39815;DHT22;25495;45.948;4.568;2022-10-24T01:00:44;18.40;99.90
39815;DHT22;25495;45.948;4.568;2022-10-24T01:03:10;18.40;99.90
39815;DHT22;25495;45.948;4.568;2022-10-24T01:08:28;18.40;99.90
39815;DHT22;25495;45.948;4.568;2022-10-24T01:11:05;18.40;99.90
39815;DHT22;25495;45.948;4.568;2022-10-24T01:20:13;18.30;99.90
39815;DHT22;25495;45.948;4.568;2022-10-24T01:28:42;18.30;99.90
39815;DHT22;25495;45.948;4.568;2022-10-24T01:31:43;18.30;99.90
39815;DHT22;25495;45.948;4.568;2022-10-24T01:34:19;18.20;99.90
39815;DHT22;25495;45.948;4.568;2022-10-24T01:37:00;18.30;99.90
39815;DHT22;25495;45.948;4.568;2022-10-24T01:39:33;18.20;99.90
39815;DHT22;25495;45.948;4.568;2022-10-24T01:42:01;18.30;99.90
39815;DHT22;25495;45.948;4.568;2022-10-24T01:44:32;18.20;99.90
39815;DHT22;25495;45.948;4.568;2022-10-24T01:47:05;18.20;99.90
39815;DHT22;25495;45.948;4.568;2022-10-24T01:49:35;18.20;99.90
39815;DHT22;25495;45.948;4.568;2022-10-24T01:52:04;18.10;99.90
39815;DHT22;25495;45.948;4.568;2022-10-24T01:54:31;18.00;99.90
39815;DHT22;25495;45.948;4.568;2022-10-24T01:56:57;18.00;99.90
39815;DHT22;25495;45.948;4.568;2022-10-24T02:02:02;18.10;99.90
39815;DHT22;25495;45.948;4.568;2022-10-24T02:04:31;18.00;99.90
39815;DHT22;25495;45.948;4.568;2022-10-24T02:07:01;18.00;99.90
39815;DHT22;25495;45.948;4.568;2022-10-24T02:11:56;17.90;99.90
39815;DHT22;25495;45.948;4.568;2022-10-24T02:16:53;17.90;99.90
39815;DHT22;25495;45.948;4.568;2022-10-24T02:19:19;18.00;99.90
39815;DHT22;25495;45.948;4.568;2022-10-24T02:24:37;17.90;99.90
39815;DHT22;25495;45.948;4.568;2022-10-24T02:27:11;17.90;99.90
39815;DHT22;25495;45.948;4.568;2022-10-24T02:32:20;17.80;99.90
39815;DHT22;25495;45.948;4.568;2022-10-24T02:34:48;17.80;99.90
39815;DHT22;25495;45.948;4.568;2022-10-24T02:37:15;17.80;99.90
39815;DHT22;25495;45.948;4.568;2022-10-24T02:39:45;17.80;99.90
39815;DHT22;25495;45.948;4.568;2022-10-24T02:42:12;17.70;99.90
39815;DHT22;25495;45.948;4.568;2022-10-24T02:44:40;17.70;99.90
39815;DHT22;25495;45.948;4.568;2022-10-24T02:47:07;17.70;99.90
39815;DHT22;25495;45.948;4.568;2022-10-24T02:49:35;17.70;99.90
39815;DHT22;25495;45.948;4.568;2022-10-24T02:52:01;17.70;99.90
39815;DHT22;25495;45.948;4.568;2022-10-24T02:54:27;17.70;99.90
39815;DHT22;25495;45.948;4.568;2022-10-24T02:57:00;17.70;99.90
39815;DHT22;25495;45.948;4.568;2022-10-24T02:59:26;17.70;99.90
39815;DHT22;25495;45.948;4.568;2022-10-24T03:01:52;17.70;99.90
39815;DHT22;25495;45.948;4.568;2022-10-24T03:04:17;17.70;99.90
39815;DHT22;25495;45.948;4.568;2022-10-24T03:06:43;17.70;99.90
39815;DHT22;25495;45.948;4.568;2022-10-24T03:09:09;17.70;99.90
39815;DHT22;25495;45.948;4.568;2022-10-24T03:11:35;17.70;99.90
39815;DHT22;25495;45.948;4.568;2022-10-24T03:14:01;17.70;99.90
39815;DHT22;25495;45.948;4.568;2022-10-24T03:16:26;17.70;99.90
39815;DHT22;25495;45.948;4.568;2022-10-24T03:18:53;17.60;99.90
39815;DHT22;25495;45.948;4.568;2022-10-24T03:21:19;17.60;99.90
39815;DHT22;25495;45.948;4.568;2022-10-24T03:23:45;17.70;99.90
39815;DHT22;25495;45.948;4.568;2022-10-24T03:26:11;17.70;99.90
39815;DHT22;25495;45.948;4.568;2022-10-24T03:28:37;17.70;99.90
39815;DHT22;25495;45.948;4.568;2022-10-24T03:31:03;17.70;99.90
39815;DHT22;25495;45.948;4.568;2022-10-24T03:33:29;17.70;99.90
39815;DHT22;25495;45.948;4.568;2022-10-24T03:35:55;17.70;99.90
39815;DHT22;25495;45.948;4.568;2022-10-24T03:38:22;17.70;99.90
39815;DHT22;25495;45.948;4.568;2022-10-24T03:40:48;17.70;99.90
39815;DHT22;25495;45.948;4.568;2022-10-24T03:43:14;17.70;99.90
39815;DHT22;25495;45.948;4.568;2022-10-24T03:45:40;17.60;99.90
39815;DHT22;25495;45.948;4.568;2022-10-24T03:48:06;17.70;99.90
39815;DHT22;25495;45.948;4.568;2022-10-24T03:50:32;17.70;99.90
39815;DHT22;25495;45.948;4.568;2022-10-24T03:52:58;17.70;99.90
39815;DHT22;25495;45.948;4.568;2022-10-24T03:55:25;17.70;99.90
39815;DHT22;25495;45.948;4.568;2022-10-24T03:57:51;17.70;99.90
39815;DHT22;25495;45.948;4.568;2022-10-24T04:00:17;17.70;99.90
39815;DHT22;25495;45.948;4.568;2022-10-24T04:02:44;17.70;99.90
39815;DHT22;25495;45.948;4.568;2022-10-24T04:05:10;17.60;99.90
39815;DHT22;25495;45.948;4.568;2022-10-24T04:07:36;17.60;99.90
39815;DHT22;25495;45.948;4.568;2022-10-24T04:10:02;17.60;99.90
39815;DHT22;25495;45.948;4.568;2022-10-24T04:12:28;17.70;99.90
39815;DHT22;25495;45.948;4.568;2022-10-24T04:14:53;17.70;99.90
39815;DHT22;25495;45.948;4.568;2022-10-24T04:17:19;17.70;99.90
39815;DHT22;25495;45.948;4.568;2022-10-24T04:19:45;17.80;99.90
39815;DHT22;25495;45.948;4.568;2022-10-24T04:22:11;17.70;99.90
39815;DHT22;25495;45.948;4.568;2022-10-24T04:24:37;17.80;99.90
39815;DHT22;25495;45.948;4.568;2022-10-24T04:27:05;17.80;99.90
39815;DHT22;25495;45.948;4.568;2022-10-24T04:29:30;17.90;99.90
39815;DHT22;25495;45.948;4.568;2022-10-24T04:31:56;17.90;99.90
39815;DHT22;25495;45.948;4.568;2022-10-24T04:34:22;17.90;99.90
39815;DHT22;25495;45.948;4.568;2022-10-24T04:36:47;17.90;99.90
39815;DHT22;25495;45.948;4.568;2022-10-24T04:39:13;18.00;99.90
39815;DHT22;25495;45.948;4.568;2022-10-24T04:41:39;17.90;99.90
39815;DHT22;25495;45.948;4.568;2022-10-24T04:44:05;18.00;99.90
39815;DHT22;25495;45.948;4.568;2022-10-24T04:46:30;17.90;99.90
39815;DHT22;25495;45.948;4.568;2022-10-24T04:48:56;18.00;99.90
39815;DHT22;25495;45.948;4.568;2022-10-24T04:51:22;18.00;99.90
39815;DHT22;25495;45.948;4.568;2022-10-24T04:53:48;18.00;99.90
39815;DHT22;25495;45.948;4.568;2022-10-24T04:56:14;18.00;99.90
39815;DHT22;25495;45.948;4.568;2022-10-24T04:58:40;18.00;99.90
39815;DHT22;25495;45.948;4.568;2022-10-24T05:01:06;18.00;99.90
39815;DHT22;25495;45.948;4.568;2022-10-24T05:03:31;18.00;99.90
39815;DHT22;25495;45.948;4.568;2022-10-24T05:05:57;17.90;99.90
39815;DHT22;25495;45.948;4.568;2022-10-24T05:08:23;17.90;99.90
39815;DHT22;25495;45.948;4.568;2022-10-24T05:10:49;17.90;99.90
39815;DHT22;25495;45.948;4.568;2022-10-24T05:13:14;17.90;99.90
39815;DHT22;25495;45.948;4.568;2022-10-24T05:15:40;17.90;99.90
39815;DHT22;25495;45.948;4.568;2022-10-24T05:18:06;17.90;99.90
39815;DHT22;25495;45.948;4.568;2022-10-24T05:20:32;17.90;99.90
39815;DHT22;25495;45.948;4.568;2022-10-24T05:22:58;17.90;99.90
39815;DHT22;25495;45.948;4.568;2022-10-24T05:25:23;17.80;99.90
39815;DHT22;25495;45.948;4.568;2022-10-24T05:27:49;17.80;99.90
39815;DHT22;25495;45.948;4.568;2022-10-24T05:30:15;17.70;99.90
39815;DHT22;25495;45.948;4.568;2022-10-24T05:32:41;17.70;99.90
39815;DHT22;25495;45.948;4.568;2022-10-24T05:35:07;17.70;99.90
39815;DHT22;25495;45.948;4.568;2022-10-24T05:37:33;17.70;99.90
39815;DHT22;25495;45.948;4.568;2022-10-24T05:39:59;17.70;99.90
39815;DHT22;25495;45.948;4.568;2022-10-24T05:42:24;17.70;99.90
39815;DHT22;25495;45.948;4.568;2022-10-24T05:44:50;17.70;99.90
39815;DHT22;25495;45.948;4.568;2022-10-24T05:47:16;17.70;99.90
39815;DHT22;25495;45.948;4.568;2022-10-24T05:49:42;17.70;99.90
39815;DHT22;25495;45.948;4.568;2022-10-24T05:52:07;17.60;99.90
39815;DHT22;25495;45.948;4.568;2022-10-24T05:54:33;17.70;99.90
39815;DHT22;25495;45.948;4.568;2022-10-24T05:56:59;17.70;99.90
39815;DHT22;25495;45.948;4.568;2022-10-24T05:59:25;17.70;99.90
39815;DHT22;25495;45.948;4.568;2022-10-24T06:01:50;17.70;99.90
39815;DHT22;25495;45.948;4.568;2022-10-24T06:04:16;17.70;99.90
39815;DHT22;25495;45.948;4.568;2022-10-24T06:06:43;17.60;99.90
39815;DHT22;25495;45.948;4.568;2022-10-24T06:09:10;17.50;99.90
39815;DHT22;25495;45.948;4.568;2022-10-24T06:14:03;17.20;99.90
39815;DHT22;25495;45.948;4.568;2022-10-24T06:16:30;17.20;99.90
39815;DHT22;25495;45.948;4.568;2022-10-24T06:18:58;17.30;99.90
39815;DHT22;25495;45.948;4.568;2022-10-24T06:21:24;17.30;99.90
39815;DHT22;25495;45.948;4.568;2022-10-24T06:23:50;17.50;99.90
39815;DHT22;25495;45.948;4.568;2022-10-24T06:26:16;17.60;99.90
39815;DHT22;25495;45.948;4.568;2022-10-24T06:28:42;17.60;99.90
39815;DHT22;25495;45.948;4.568;2022-10-24T06:31:08;17.60;99.90
39815;DHT22;25495;45.948;4.568;2022-10-24T06:33:35;17.40;99.90
39815;DHT22;25495;45.948;4.568;2022-10-24T06:36:03;17.30;99.90
39815;DHT22;25495;45.948;4.568;2022-10-24T06:38:30;17.40;99.90
39815;DHT22;25495;45.948;4.568;2022-10-24T06:40:56;17.50;99.90
39815;DHT22;25495;45.948;4.568;2022-10-24T06:43:22;17.50;99.90
39815;DHT22;25495;45.948;4.568;2022-10-24T06:45:48;17.50;99.90
39815;DHT22;25495;45.948;4.568;2022-10-24T06:48:14;17.50;99.90
39815;DHT22;25495;45.948;4.568;2022-10-24T06:50:39;17.60;99.90
39815;DHT22;25495;45.948;4.568;2022-10-24T06:53:09;17.60;99.90
39815;DHT22;25495;45.948;4.568;2022-10-24T06:55:37;17.50;99.90
39815;DHT22;25495;45.948;4.568;2022-10-24T06:58:03;17.60;99.90
39815;DHT22;25495;45.948;4.568;2022-10-24T07:00:32;17.60;99.90
39815;DHT22;25495;45.948;4.568;2022-10-24T07:02:58;17.50;99.90
39815;DHT22;25495;45.948;4.568;2022-10-24T07:05:24;17.50;99.90
39815;DHT22;25495;45.948;4.568;2022-10-24T07:07:49;17.40;99.90
39815;DHT22;25495;45.948;4.568;2022-10-24T07:10:15;17.40;99.90
39815;DHT22;25495;45.948;4.568;2022-10-24T07:12:41;17.40;99.90
39815;DHT22;25495;45.948;4.568;2022-10-24T07:15:08;17.40;99.90
39815;DHT22;25495;45.948;4.568;2022-10-24T07:17:44;17.40;99.90
39815;DHT22;25495;45.948;4.568;2022-10-24T07:20:11;17.30;99.90
39815;DHT22;25495;45.948;4.568;2022-10-24T07:22:37;17.30;99.90
39815;DHT22;25495;45.948;4.568;2022-10-24T07:25:04;17.30;99.90
39815;DHT22;25495;45.948;4.568;2022-10-24T07:27:30;17.30;99.90
39815;DHT22;25495;45.948;4.568;2022-10-24T07:29:56;17.30;99.90
39815;DHT22;25495;45.948;4.568;2022-10-24T07:32:21;17.20;99.90
39815;DHT22;25495;45.948;4.568;2022-10-24T07:34:48;17.20;99.90
39815;DHT22;25495;45.948;4.568;2022-10-24T07:37:15;17.30;99.90
39815;DHT22;25495;45.948;4.568;2022-10-24T07:39:40;17.20;99.90
39815;DHT22;25495;45.948;4.568;2022-10-24T07:42:06;17.30;99.90
39815;DHT22;25495;45.948;4.568;2022-10-24T07:44:32;17.40;99.90
39815;DHT22;25495;45.948;4.568;2022-10-24T07:46:58;17.40;99.90
39815;DHT22;25495;45.948;4.568;2022-10-24T07:49:24;17.50;99.90
39815;DHT22;25495;45.948;4.568;2022-10-24T07:51:49;17.60;99.90
39815;DHT22;25495;45.948;4.568;2022-10-24T07:54:15;17.70;99.90
39815;DHT22;25495;45.948;4.568;2022-10-24T07:56:41;17.70;99.90
39815;DHT22;25495;45.948;4.568;2022-10-24T07:59:07;17.70;99.90
39815;DHT22;25495;45.948;4.568;2022-10-24T08:01:33;17.70;99.90
39815;DHT22;25495;45.948;4.568;2022-10-24T08:03:59;17.70;99.90
39815;DHT22;25495;45.948;4.568;2022-10-24T08:06:29;17.80;99.90
39815;DHT22;25495;45.948;4.568;2022-10-24T08:08:55;17.90;99.90
39815;DHT22;25495;45.948;4.568;2022-10-24T08:11:25;18.00;99.90
39815;DHT22;25495;45.948;4.568;2022-10-24T08:13:52;18.00;99.90
39815;DHT22;25495;45.948;4.568;2022-10-24T08:16:20;18.00;99.90
39815;DHT22;25495;45.948;4.568;2022-10-24T08:18:47;18.00;99.90
39815;DHT22;25495;45.948;4.568;2022-10-24T08:21:15;18.00;99.90
39815;DHT22;25495;45.948;4.568;2022-10-24T08:23:44;18.10;99.90
39815;DHT22;25495;45.948;4.568;2022-10-24T08:26:15;18.20;99.90
39815;DHT22;25495;45.948;4.568;2022-10-24T08:28:42;18.20;99.90
39815;DHT22;25495;45.948;4.568;2022-10-24T08:31:11;18.30;99.90
39815;DHT22;25495;45.948;4.568;2022-10-24T08:33:37;18.40;99.90
39815;DHT22;25495;45.948;4.568;2022-10-24T08:36:06;18.40;99.90
39815;DHT22;25495;45.948;4.568;2022-10-24T08:38:36;18.60;99.90
39815;DHT22;25495;45.948;4.568;2022-10-24T08:41:01;18.60;99.90
39815;DHT22;25495;45.948;4.568;2022-10-24T08:43:27;18.50;99.90
39815;DHT22;25495;45.948;4.568;2022-10-24T08:46:55;18.40;99.90
39815;DHT22;25495;45.948;4.568;2022-10-24T08:49:45;18.50;99.90
39815;DHT22;25495;45.948;4.568;2022-10-24T08:54:22;18.50;99.90
39815;DHT22;25495;45.948;4.568;2022-10-24T08:56:51;18.70;99.90
39815;DHT22;25495;45.948;4.568;2022-10-24T08:59:19;18.70;99.90
39815;DHT22;25495;45.948;4.568;2022-10-24T09:04:35;18.70;99.90
39815;DHT22;25495;45.948;4.568;2022-10-24T09:07:03;18.80;99.90
39815;DHT22;25495;45.948;4.568;2022-10-24T09:09:39;18.90;99.90
39815;DHT22;25495;45.948;4.568;2022-10-24T09:12:11;18.80;99.90
39815;DHT22;25495;45.948;4.568;2022-10-24T09:14:38;18.90;99.90
39815;DHT22;25495;45.948;4.568;2022-10-24T09:17:21;19.00;99.90
39815;DHT22;25495;45.948;4.568;2022-10-24T09:20:24;19.00;99.90
39815;DHT22;25495;45.948;4.568;2022-10-24T09:23:03;19.00;99.90
39815;DHT22;25495;45.948;4.568;2022-10-24T09:25:33;18.90;99.90
39815;DHT22;25495;45.948;4.568;2022-10-24T09:28:04;19.00;99.90
39815;DHT22;25495;45.948;4.568;2022-10-24T09:30:30;19.10;99.90
39815;DHT22;25495;45.948;4.568;2022-10-24T09:32:58;19.10;99.90
39815;DHT22;25495;45.948;4.568;2022-10-24T09:35:28;19.10;99.90
39815;DHT22;25495;45.948;4.568;2022-10-24T09:37:58;19.00;99.90
39815;DHT22;25495;45.948;4.568;2022-10-24T09:40:49;19.00;99.90
39815;DHT22;25495;45.948;4.568;2022-10-24T09:43:33;19.00;99.90
39815;DHT22;25495;45.948;4.568;2022-10-24T09:46:06;19.10;99.90
39815;DHT22;25495;45.948;4.568;2022-10-24T09:51:38;19.10;99.90
39815;DHT22;25495;45.948;4.568;2022-10-24T09:59:43;19.20;99.90
39815;DHT22;25495;45.948;4.568;2022-10-24T10:04:37;19.30;99.90
39815;DHT22;25495;45.948;4.568;2022-10-24T10:07:24;19.40;99.90
39815;DHT22;25495;45.948;4.568;2022-10-24T10:09:54;19.50;99.90
39815;DHT22;25495;45.948;4.568;2022-10-24T10:12:38;19.70;99.90
39815;DHT22;25495;45.948;4.568;2022-10-24T10:18:23;20.00;99.90
39815;DHT22;25495;45.948;4.568;2022-10-24T10:21:09;20.00;99.90
39815;DHT22;25495;45.948;4.568;2022-10-24T10:23:45;20.20;99.90
39815;DHT22;25495;45.948;4.568;2022-10-24T10:26:43;20.30;99.90
39815;DHT22;25495;45.948;4.568;2022-10-24T10:31:43;20.20;99.90
39815;DHT22;25495;45.948;4.568;2022-10-24T10:37:22;20.20;99.90
39815;DHT22;25495;45.948;4.568;2022-10-24T10:40:06;20.20;99.90
39815;DHT22;25495;45.948;4.568;2022-10-24T10:42:48;20.20;99.90
39815;DHT22;25495;45.948;4.568;2022-10-24T10:58:50;21.10;99.90
39815;DHT22;25495;45.948;4.568;2022-10-24T11:04:22;21.00;99.90
39815;DHT22;25495;45.948;4.568;2022-10-24T11:07:23;20.80;99.90
39815;DHT22;25495;45.948;4.568;2022-10-24T11:09:56;20.40;99.90
39815;DHT22;25495;45.948;4.568;2022-10-24T11:12:33;20.30;99.90
39815;DHT22;25495;45.948;4.568;2022-10-24T11:15:23;20.30;99.90
39815;DHT22;25495;45.948;4.568;2022-10-24T11:21:02;20.40;99.90
39815;DHT22;25495;45.948;4.568;2022-10-24T11:26:21;20.50;99.90
39815;DHT22;25495;45.948;4.568;2022-10-24T11:28:58;20.70;99.90
39815;DHT22;25495;45.948;4.568;2022-10-24T11:31:38;20.70;99.90
39815;DHT22;25495;45.948;4.568;2022-10-24T11:34:14;20.60;99.90
39815;DHT22;25495;45.948;4.568;2022-10-24T11:36:57;20.80;99.90
39815;DHT22;25495;45.948;4.568;2022-10-24T11:53:04;20.40;99.90
39815;DHT22;25495;45.948;4.568;2022-10-24T11:55:42;20.40;99.90
39815;DHT22;25495;45.948;4.568;2022-10-24T11:58:10;20.30;99.90
39815;DHT22;25495;45.948;4.568;2022-10-24T12:01:02;20.30;99.90
39815;DHT22;25495;45.948;4.568;2022-10-24T12:11:55;20.30;99.90
39815;DHT22;25495;45.948;4.568;2022-10-24T12:14:40;20.30;99.90
39815;DHT22;25495;45.948;4.568;2022-10-24T12:17:28;20.40;99.90
39815;DHT22;25495;45.948;4.568;2022-10-24T12:19:59;20.80;99.90
39815;DHT22;25495;45.948;4.568;2022-10-24T12:22:32;21.30;99.90
39815;DHT22;25495;45.948;4.568;2022-10-24T12:25:07;21.70;99.90
39815;DHT22;25495;45.948;4.568;2022-10-24T12:27:42;21.90;99.90
39815;DHT22;25495;45.948;4.568;2022-10-24T12:32:47;21.80;99.30
39815;DHT22;25495;45.948;4.568;2022-10-24T12:37:52;21.90;99.20
39815;DHT22;25495;45.948;4.568;2022-10-24T12:43:31;21.50;97.80
39815;DHT22;25495;45.948;4.568;2022-10-24T12:46:00;21.40;97.70
39815;DHT22;25495;45.948;4.568;2022-10-24T12:48:35;21.20;97.70
39815;DHT22;25495;45.948;4.568;2022-10-24T12:51:24;21.20;98.00
39815;DHT22;25495;45.948;4.568;2022-10-24T12:54:39;21.40;98.60
39815;DHT22;25495;45.948;4.568;2022-10-24T13:13:15;22.30;96.00
39815;DHT22;25495;45.948;4.568;2022-10-24T13:21:34;22.00;96.40
39815;DHT22;25495;45.948;4.568;2022-10-24T13:26:39;21.90;96.60
39815;DHT22;25495;45.948;4.568;2022-10-24T13:29:14;22.00;97.90
39815;DHT22;25495;45.948;4.568;2022-10-24T13:31:43;22.00;95.80
39815;DHT22;25495;45.948;4.568;2022-10-24T13:34:16;22.10;96.60
39815;DHT22;25495;45.948;4.568;2022-10-24T13:36:43;22.00;96.20
39815;DHT22;25495;45.948;4.568;2022-10-24T13:39:14;21.60;96.90
39815;DHT22;25495;45.948;4.568;2022-10-24T13:41:46;21.20;96.60
39815;DHT22;25495;45.948;4.568;2022-10-24T13:47:17;20.90;96.20
39815;DHT22;25495;45.948;4.568;2022-10-24T13:49:59;20.60;97.10
39815;DHT22;25495;45.948;4.568;2022-10-24T13:55:27;20.40;95.50
39815;DHT22;25495;45.948;4.568;2022-10-24T14:00:42;20.70;95.50
39815;DHT22;25495;45.948;4.568;2022-10-24T14:03:20;21.10;95.90
39815;DHT22;25495;45.948;4.568;2022-10-24T14:05:55;21.30;96.70
39815;DHT22;25495;45.948;4.568;2022-10-24T14:08:41;21.30;93.90
39815;DHT22;25495;45.948;4.568;2022-10-24T14:11:18;21.60;97.10
39815;DHT22;25495;45.948;4.568;2022-10-24T14:13:51;21.50;95.70
39815;DHT22;25495;45.948;4.568;2022-10-24T14:16:24;21.60;94.90
39815;DHT22;25495;45.948;4.568;2022-10-24T14:18:50;21.50;95.20
39815;DHT22;25495;45.948;4.568;2022-10-24T14:21:19;21.40;95.60
39815;DHT22;25495;45.948;4.568;2022-10-24T14:23:59;21.40;95.50
39815;DHT22;25495;45.948;4.568;2022-10-24T14:26:26;21.40;96.00
39815;DHT22;25495;45.948;4.568;2022-10-24T14:28:57;21.40;95.40
39815;DHT22;25495;45.948;4.568;2022-10-24T14:31:28;21.40;95.80
39815;DHT22;25495;45.948;4.568;2022-10-24T14:33:56;21.40;95.90
39815;DHT22;25495;45.948;4.568;2022-10-24T14:36:33;21.50;96.10
39815;DHT22;25495;45.948;4.568;2022-10-24T14:39:03;21.40;96.20
39815;DHT22;25495;45.948;4.568;2022-10-24T14:41:37;21.40;94.80
39815;DHT22;25495;45.948;4.568;2022-10-24T14:44:04;21.30;95.80
39815;DHT22;25495;45.948;4.568;2022-10-24T14:46:39;21.30;95.60
39815;DHT22;25495;45.948;4.568;2022-10-24T14:49:20;21.20;96.30
39815;DHT22;25495;45.948;4.568;2022-10-24T14:51:49;21.20;94.80
39815;DHT22;25495;45.948;4.568;2022-10-24T14:54:22;21.20;96.10
39815;DHT22;25495;45.948;4.568;2022-10-24T14:56:50;21.00;95.10
39815;DHT22;25495;45.948;4.568;2022-10-24T14:59:27;20.90;94.60
39815;DHT22;25495;45.948;4.568;2022-10-24T15:04:44;20.80;95.50
39815;DHT22;25495;45.948;4.568;2022-10-24T15:12:38;20.60;92.80
39815;DHT22;25495;45.948;4.568;2022-10-24T15:15:24;20.60;93.10
39815;DHT22;25495;45.948;4.568;2022-10-24T15:18:40;20.50;94.80
39815;DHT22;25495;45.948;4.568;2022-10-24T15:20:38;20.40;93.30
39815;DHT22;25495;45.948;4.568;2022-10-24T15:23:06;20.40;94.60
39815;DHT22;25495;45.948;4.568;2022-10-24T15:25:34;20.40;93.40
39815;DHT22;25495;45.948;4.568;2022-10-24T15:28:02;20.30;94.20
39815;DHT22;25495;45.948;4.568;2022-10-24T15:30:34;20.20;95.20
39815;DHT22;25495;45.948;4.568;2022-10-24T15:33:02;20.20;95.80
39815;DHT22;25495;45.948;4.568;2022-10-24T15:35:33;20.10;94.70
39815;DHT22;25495;45.948;4.568;2022-10-24T15:38:02;20.00;94.90
39815;DHT22;25495;45.948;4.568;2022-10-24T15:40:31;20.00;95.40
39815;DHT22;25495;45.948;4.568;2022-10-24T15:42:58;19.90;94.70
39815;DHT22;25495;45.948;4.568;2022-10-24T15:45:24;19.80;95.50
39815;DHT22;25495;45.948;4.568;2022-10-24T15:47:50;19.80;94.80
39815;DHT22;25495;45.948;4.568;2022-10-24T15:50:22;19.80;94.80
39815;DHT22;25495;45.948;4.568;2022-10-24T15:52:51;19.80;95.10
39815;DHT22;25495;45.948;4.568;2022-10-24T15:55:20;19.70;95.30
39815;DHT22;25495;45.948;4.568;2022-10-24T15:57:46;19.60;95.80
39815;DHT22;25495;45.948;4.568;2022-10-24T16:00:17;19.60;95.20
39815;DHT22;25495;45.948;4.568;2022-10-24T16:02:45;19.40;95.10
39815;DHT22;25495;45.948;4.568;2022-10-24T16:05:19;19.40;94.80
39815;DHT22;25495;45.948;4.568;2022-10-24T16:07:46;19.40;94.60
39815;DHT22;25495;45.948;4.568;2022-10-24T16:10:14;19.30;94.80
39815;DHT22;25495;45.948;4.568;2022-10-24T16:12:41;19.20;94.30
39815;DHT22;25495;45.948;4.568;2022-10-24T16:15:37;19.20;95.20
39815;DHT22;25495;45.948;4.568;2022-10-24T16:18:03;19.10;95.10
39815;DHT22;25495;45.948;4.568;2022-10-24T16:20:29;19.10;95.70
39815;DHT22;25495;45.948;4.568;2022-10-24T16:22:55;19.00;95.70
39815;DHT22;25495;45.948;4.568;2022-10-24T16:25:23;18.90;95.50
39815;DHT22;25495;45.948;4.568;2022-10-24T16:27:50;18.80;96.20
39815;DHT22;25495;45.948;4.568;2022-10-24T16:30:18;18.80;96.30
39815;DHT22;25495;45.948;4.568;2022-10-24T16:32:45;18.80;95.90
39815;DHT22;25495;45.948;4.568;2022-10-24T16:35:16;18.80;95.20
39815;DHT22;25495;45.948;4.568;2022-10-24T16:37:42;18.80;95.40
39815;DHT22;25495;45.948;4.568;2022-10-24T16:40:08;18.80;95.50
39815;DHT22;25495;45.948;4.568;2022-10-24T16:42:34;18.80;95.10
39815;DHT22;25495;45.948;4.568;2022-10-24T16:44:59;18.60;95.50
39815;DHT22;25495;45.948;4.568;2022-10-24T16:47:28;18.50;95.30
39815;DHT22;25495;45.948;4.568;2022-10-24T16:49:56;18.40;95.70
39815;DHT22;25495;45.948;4.568;2022-10-24T16:52:23;18.40;95.60
39815;DHT22;25495;45.948;4.568;2022-10-24T16:54:48;18.40;95.50
39815;DHT22;25495;45.948;4.568;2022-10-24T16:57:14;18.30;95.50
39815;DHT22;25495;45.948;4.568;2022-10-24T16:59:40;18.20;96.20
39815;DHT22;25495;45.948;4.568;2022-10-24T17:02:06;18.30;96.50
39815;DHT22;25495;45.948;4.568;2022-10-24T17:04:33;18.30;96.10
39815;DHT22;25495;45.948;4.568;2022-10-24T17:06:58;18.40;96.10
39815;DHT22;25495;45.948;4.568;2022-10-24T17:09:24;18.40;95.80
39815;DHT22;25495;45.948;4.568;2022-10-24T17:11:51;18.40;95.70
39815;DHT22;25495;45.948;4.568;2022-10-24T17:14:20;18.40;96.10
39815;DHT22;25495;45.948;4.568;2022-10-24T17:16:46;18.30;95.90
39815;DHT22;25495;45.948;4.568;2022-10-24T17:19:12;18.30;96.10
39815;DHT22;25495;45.948;4.568;2022-10-24T17:21:38;18.30;96.10
39815;DHT22;25495;45.948;4.568;2022-10-24T17:24:04;18.30;96.20
39815;DHT22;25495;45.948;4.568;2022-10-24T17:26:33;18.30;96.20
39815;DHT22;25495;45.948;4.568;2022-10-24T17:28:59;18.30;96.10
39815;DHT22;25495;45.948;4.568;2022-10-24T17:31:26;18.30;97.00
39815;DHT22;25495;45.948;4.568;2022-10-24T17:33:52;18.30;96.20
39815;DHT22;25495;45.948;4.568;2022-10-24T17:36:24;18.20;96.60
39815;DHT22;25495;45.948;4.568;2022-10-24T17:39:23;18.20;96.10
39815;DHT22;25495;45.948;4.568;2022-10-24T17:41:50;18.10;96.90
39815;DHT22;25495;45.948;4.568;2022-10-24T17:44:18;18.00;97.10
39815;DHT22;25495;45.948;4.568;2022-10-24T17:46:45;17.90;96.50
39815;DHT22;25495;45.948;4.568;2022-10-24T17:49:11;18.00;96.90
39815;DHT22;25495;45.948;4.568;2022-10-24T17:51:38;17.90;99.90
39815;DHT22;25495;45.948;4.568;2022-10-24T17:54:06;17.80;98.50
39815;DHT22;25495;45.948;4.568;2022-10-24T17:56:34;17.60;98.10
39815;DHT22;25495;45.948;4.568;2022-10-24T17:59:01;17.60;98.30
39815;DHT22;25495;45.948;4.568;2022-10-24T18:01:27;17.70;98.20
39815;DHT22;25495;45.948;4.568;2022-10-24T18:03:53;17.60;98.50
39815;DHT22;25495;45.948;4.568;2022-10-24T18:06:20;17.60;98.20
39815;DHT22;25495;45.948;4.568;2022-10-24T18:08:46;17.60;98.00
39815;DHT22;25495;45.948;4.568;2022-10-24T18:11:13;17.60;97.80
39815;DHT22;25495;45.948;4.568;2022-10-24T18:13:39;17.60;97.90
39815;DHT22;25495;45.948;4.568;2022-10-24T18:16:07;17.40;98.20
39815;DHT22;25495;45.948;4.568;2022-10-24T18:18:33;17.30;98.70